createdAt,value
2022-09-01T00:00:01.953Z,80.21
2022-09-01T00:02:30.182Z,80.93
2022-09-01T00:04:58.790Z,80.68
2022-09-01T00:07:29.970Z,80.94
2022-09-01T00:09:57.075Z,81.00
2022-09-01T00:12:25.596Z,80.87
2022-09-01T00:14:53.423Z,80.94
2022-09-01T00:17:20.366Z,80.93
2022-09-01T00:19:47.287Z,80.46
2022-09-01T00:22:14.106Z,79.89
2022-09-01T00:24:41.031Z,79.08
2022-09-01T00:27:08.031Z,79.04
2022-09-01T00:29:36.327Z,79.69
2022-09-01T00:32:04.487Z,80.25
2022-09-01T00:34:31.426Z,80.64
2022-09-01T00:36:58.242Z,81.08
2022-09-01T00:39:25.077Z,80.71
2022-09-01T00:41:52.613Z,81.16
2022-09-01T00:44:29.551Z,80.92
2022-09-01T00:46:59.746Z,80.89
2022-09-01T00:49:39.897Z,81.17
2022-09-01T00:52:30.439Z,80.96
2022-09-01T00:55:04.527Z,81.29
2022-09-01T00:57:31.367Z,80.95
2022-09-01T01:00:13.407Z,80.83
2022-09-01T01:02:42.263Z,80.87
2022-09-01T01:05:11.891Z,80.50
2022-09-01T01:07:47.393Z,80.36
2022-09-01T01:10:17.888Z,80.55
2022-09-01T01:12:45.273Z,80.75
2022-09-01T01:15:14.070Z,80.26
2022-09-01T01:17:41.060Z,80.03
2022-09-01T01:20:28.771Z,80.26
2022-09-01T01:23:31.241Z,79.99
2022-09-01T01:26:00.047Z,79.98
2022-09-01T01:28:34.175Z,79.99
2022-09-01T01:31:11.828Z,80.03
2022-09-01T01:33:54.794Z,79.93
2022-09-01T01:36:32.195Z,79.93
2022-09-01T01:39:04.359Z,79.43
2022-09-01T01:41:33.956Z,79.04
2022-09-01T01:44:04.298Z,79.15
2022-09-01T01:46:42.854Z,79.53
2022-09-01T01:49:13.251Z,79.64
2022-09-01T01:51:40.922Z,79.59
2022-09-01T01:54:08.120Z,79.87
2022-09-01T01:56:38.867Z,79.99
2022-09-01T01:59:07.133Z,79.00
2022-09-01T02:01:36.088Z,78.49
2022-09-01T02:04:05.708Z,79.19
2022-09-01T02:06:34.950Z,78.85
2022-09-01T02:09:03.658Z,78.94
2022-09-01T02:11:37.740Z,79.27
2022-09-01T02:14:06.942Z,79.14
2022-09-01T02:16:35.381Z,79.74
2022-09-01T02:19:07.172Z,79.58
2022-09-01T02:21:34.447Z,79.48
2022-09-01T02:24:08.292Z,79.93
2022-09-01T02:26:42.982Z,79.64
2022-09-01T02:29:19.029Z,79.81
2022-09-01T02:31:49.595Z,79.38
2022-09-01T02:34:17.065Z,79.63
2022-09-01T02:36:47.897Z,79.14
2022-09-01T02:39:33.489Z,79.56
2022-09-01T02:42:01.562Z,79.53
2022-09-01T02:44:30.934Z,79.15
2022-09-01T02:46:58.757Z,79.16
2022-09-01T02:49:28.581Z,79.06
2022-09-01T02:52:01.279Z,78.86
2022-09-01T02:54:29.865Z,78.57
2022-09-01T02:56:56.936Z,78.58
2022-09-01T02:59:27.394Z,79.17
2022-09-01T03:01:54.710Z,79.11
2022-09-01T03:04:24.093Z,79.37
2022-09-01T03:06:54.918Z,79.37
2022-09-01T03:09:22.777Z,78.78
2022-09-01T03:11:54.276Z,79.01
2022-09-01T03:14:24.246Z,78.68
2022-09-01T03:16:51.437Z,79.18
2022-09-01T03:19:19.073Z,79.13
2022-09-01T03:21:46.759Z,78.87
2022-09-01T03:24:17.806Z,79.24
2022-09-01T03:26:49.711Z,78.89
2022-09-01T03:29:18.575Z,79.37
2022-09-01T03:31:45.807Z,78.96
2022-09-01T03:34:12.727Z,79.24
2022-09-01T03:36:39.902Z,79.40
2022-09-01T03:39:14.615Z,79.46
2022-09-01T03:41:43.495Z,79.21
2022-09-01T03:44:12.056Z,79.21
2022-09-01T03:46:40.386Z,78.87
2022-09-01T03:49:07.921Z,79.22
2022-09-01T03:51:35.394Z,79.20
2022-09-01T03:54:02.183Z,79.01
2022-09-01T03:56:29.817Z,78.98
2022-09-01T03:58:59.649Z,79.15
2022-09-01T04:01:29.682Z,79.44
2022-09-01T04:03:57.105Z,79.16
2022-09-01T04:06:24.214Z,79.24
2022-09-01T04:08:57.234Z,79.11
2022-09-01T04:11:24.322Z,79.05
2022-09-01T04:13:52.268Z,78.68
2022-09-01T04:16:48.069Z,78.96
2022-09-01T04:19:26.615Z,79.43
2022-09-01T04:22:01.129Z,79.15
2022-09-01T04:24:30.958Z,79.42
2022-09-01T04:27:02.109Z,79.02
2022-09-01T04:29:31.736Z,78.62
2022-09-01T04:32:07.151Z,79.50
2022-09-01T04:34:40.053Z,78.84
2022-09-01T04:37:18.636Z,79.12
2022-09-01T04:39:57.611Z,79.32
2022-09-01T04:42:28.896Z,79.16
2022-09-01T04:44:57.483Z,79.38
2022-09-01T04:47:31.615Z,79.99
2022-09-01T04:50:14.965Z,79.92
2022-09-01T04:52:42.995Z,80.43
2022-09-01T04:55:17.417Z,80.29
2022-09-01T04:57:47.559Z,79.85
2022-09-01T05:00:22.469Z,79.77
2022-09-01T05:03:05.254Z,80.20
2022-09-01T05:05:44.858Z,79.91
2022-09-01T05:08:24.210Z,79.87
2022-09-01T05:10:55.438Z,80.27
2022-09-01T05:13:24.095Z,79.89
2022-09-01T05:16:06.025Z,79.42
2022-09-01T05:18:33.941Z,79.49
2022-09-01T05:21:09.859Z,79.50
2022-09-01T05:23:40.701Z,79.80
2022-09-01T05:26:22.582Z,79.81
2022-09-01T05:28:54.866Z,79.42
2022-09-01T05:31:24.233Z,79.54
2022-09-01T05:33:51.711Z,79.63
2022-09-01T05:36:23.425Z,79.68
2022-09-01T05:38:52.235Z,79.80
2022-09-01T05:41:20.938Z,80.13
2022-09-01T05:43:50.427Z,78.67
2022-09-01T05:46:23.989Z,79.56
2022-09-01T05:48:53.663Z,79.42
2022-09-01T05:51:44.386Z,79.45
2022-09-01T05:54:14.296Z,79.38
2022-09-01T05:56:43.970Z,78.73
2022-09-01T05:59:23.101Z,78.50
2022-09-01T06:01:53.284Z,77.64
2022-09-01T06:04:20.863Z,77.34
2022-09-01T06:07:07.186Z,77.63
2022-09-01T06:09:45.448Z,77.13
2022-09-01T06:12:20.338Z,77.42
2022-09-01T06:14:49.585Z,77.09
2022-09-01T06:17:21.970Z,76.25
2022-09-01T06:19:48.987Z,76.57
2022-09-01T06:22:16.969Z,76.47
2022-09-01T06:24:45.039Z,76.52
2022-09-01T06:27:17.931Z,76.30
2022-09-01T06:29:45.435Z,75.65
2022-09-01T06:32:13.074Z,75.56
2022-09-01T06:34:50.239Z,75.51
2022-09-01T06:37:17.675Z,75.01
2022-09-01T06:39:44.478Z,75.81
2022-09-01T06:42:13.683Z,74.66
2022-09-01T06:44:41.176Z,72.88
2022-09-01T06:47:09.010Z,73.56
2022-09-01T06:49:36.724Z,74.13
2022-09-01T06:52:04.698Z,74.10
2022-09-01T06:54:34.125Z,73.67
2022-09-01T06:58:03.360Z,71.87
2022-09-01T07:02:39.757Z,70.58
2022-09-01T07:05:07.928Z,70.71
2022-09-01T07:10:27.137Z,70.02
2022-09-01T07:13:08.613Z,69.85
2022-09-01T07:18:30.848Z,70.30
2022-09-01T07:21:07.062Z,69.99
2022-09-01T07:24:07.859Z,69.28
2022-09-01T07:26:35.874Z,68.52
2022-09-01T07:29:07.005Z,69.92
2022-09-01T07:34:46.177Z,69.19
2022-09-01T07:38:02.925Z,68.64
2022-09-01T07:39:57.205Z,71.09
2022-09-01T07:43:12.779Z,67.05
2022-09-01T07:45:47.912Z,66.25
2022-09-01T07:53:53.306Z,64.72
2022-09-01T07:56:23.100Z,64.80
2022-09-01T07:58:51.695Z,65.28
2022-09-01T08:01:23.401Z,65.48
2022-09-01T08:03:55.995Z,65.73
2022-09-01T08:06:28.029Z,66.46
2022-09-01T08:08:58.804Z,66.65
2022-09-01T08:14:18.217Z,66.48
2022-09-01T08:16:53.120Z,66.27
2022-09-01T08:19:20.463Z,66.63
2022-09-01T08:21:47.255Z,65.51
2022-09-01T08:24:14.283Z,65.80
2022-09-01T08:26:41.152Z,65.10
2022-09-01T08:29:08.170Z,64.63
2022-09-01T08:31:35.645Z,64.29
2022-09-01T08:34:05.522Z,63.57
2022-09-01T08:36:32.724Z,63.48
2022-09-01T08:38:59.660Z,62.00
2022-09-01T08:41:52.130Z,62.12
2022-09-01T08:44:30.739Z,61.67
2022-09-01T08:47:15.736Z,60.63
2022-09-01T08:49:46.994Z,61.59
2022-09-01T08:52:37.791Z,60.96
2022-09-01T08:55:38.374Z,62.01
2022-09-01T08:58:06.700Z,60.75
2022-09-01T09:00:54.872Z,60.42
2022-09-01T09:03:50.130Z,59.75
2022-09-01T09:06:31.755Z,59.42
2022-09-01T09:09:05.649Z,60.23
2022-09-01T09:12:04.480Z,60.44
2022-09-01T09:15:05.044Z,60.50
2022-09-01T09:17:40.746Z,60.57
2022-09-01T09:20:09.237Z,60.41
2022-09-01T09:22:36.366Z,60.10
2022-09-01T09:25:14.529Z,59.32
2022-09-01T09:27:45.486Z,58.98
2022-09-01T09:30:23.687Z,58.66
2022-09-01T09:33:30.931Z,57.67
2022-09-01T09:35:47.526Z,55.85
2022-09-01T09:38:22.657Z,55.83
2022-09-01T09:41:18.476Z,53.35
2022-09-01T09:44:15.362Z,51.82
2022-09-01T09:46:45.901Z,51.79
2022-09-01T09:49:35.167Z,51.22
2022-09-01T09:52:10.104Z,48.48
2022-09-01T09:54:58.187Z,49.64
2022-09-01T09:57:25.406Z,49.02
2022-09-01T10:00:25.642Z,47.91
2022-09-01T10:03:04.536Z,48.15
2022-09-01T10:05:47.812Z,48.16
2022-09-01T10:08:44.783Z,47.31
2022-09-01T10:11:44.544Z,47.75
2022-09-01T10:14:53.832Z,46.14
2022-09-01T10:17:31.504Z,45.19
2022-09-01T10:20:06.158Z,44.07
2022-09-01T10:22:36.655Z,43.50
2022-09-01T10:25:05.758Z,42.30
2022-09-01T10:27:39.180Z,42.03
2022-09-01T10:30:19.225Z,41.37
2022-09-01T10:33:01.521Z,41.49
2022-09-01T10:35:39.717Z,43.77
2022-09-01T10:38:16.021Z,43.33
2022-09-01T10:40:49.669Z,41.77
2022-09-01T10:43:38.020Z,43.42
2022-09-01T10:46:48.860Z,44.36
2022-09-01T10:49:28.029Z,43.68
2022-09-01T10:52:03.191Z,42.78
2022-09-01T10:54:51.104Z,41.83
2022-09-01T10:57:45.597Z,42.36
2022-09-01T11:00:40.455Z,43.48
2022-09-01T11:06:17.964Z,42.80
2022-09-01T11:09:03.832Z,39.42
2022-09-01T11:11:47.340Z,39.43
2022-09-01T11:14:36.991Z,41.58
2022-09-01T11:17:17.919Z,42.16
2022-09-01T11:20:20.498Z,41.03
2022-09-01T11:23:00.780Z,41.06
2022-09-01T11:25:39.487Z,41.40
2022-09-01T11:28:31.312Z,40.31
2022-09-01T11:31:06.981Z,40.12
2022-09-01T11:33:53.476Z,40.24
2022-09-01T11:36:48.637Z,40.43
2022-09-01T11:39:19.237Z,39.28
2022-09-01T11:42:04.631Z,40.20
2022-09-01T11:44:59.270Z,40.97
2022-09-01T11:47:50.266Z,40.76
2022-09-01T11:50:20.370Z,42.52
2022-09-01T11:53:08.273Z,42.85
2022-09-01T11:55:49.658Z,42.93
2022-09-01T11:58:28.897Z,42.56
2022-09-01T12:01:11.018Z,43.61
2022-09-01T12:03:38.146Z,44.50
2022-09-01T12:06:08.731Z,44.48
2022-09-01T12:08:42.919Z,43.87
2022-09-01T12:11:20.675Z,43.39
2022-09-01T12:14:00.003Z,44.12
2022-09-01T12:16:29.296Z,44.89
2022-09-01T12:18:59.039Z,42.80
2022-09-01T12:21:40.299Z,44.07
2022-09-01T12:24:23.812Z,43.91
2022-09-01T12:26:57.294Z,42.58
2022-09-01T12:29:25.417Z,42.51
2022-09-01T12:31:55.727Z,42.78
2022-09-01T12:34:32.694Z,41.63
2022-09-01T12:37:14.423Z,41.42
2022-09-01T12:39:45.587Z,39.84
2022-09-01T12:42:21.427Z,42.77
2022-09-01T12:45:10.236Z,40.62
2022-09-01T12:47:37.273Z,40.66
2022-09-01T12:50:11.070Z,41.15
2022-09-01T12:53:12.558Z,39.94
2022-09-01T12:55:55.098Z,39.62
2022-09-01T12:58:29.396Z,39.39
2022-09-01T13:01:16.167Z,39.50
2022-09-01T13:04:12.618Z,37.56
2022-09-01T13:06:39.662Z,36.71
2022-09-01T13:09:06.940Z,34.96
2022-09-01T13:14:21.699Z,33.48
2022-09-01T13:16:48.567Z,33.95
2022-09-01T13:19:24.052Z,32.57
2022-09-01T13:21:54.454Z,30.76
2022-09-01T13:24:24.450Z,29.81
2022-09-01T13:29:44.965Z,28.91
2022-09-01T13:32:20.788Z,28.56
2022-09-01T13:34:51.966Z,30.26
2022-09-01T13:37:21.402Z,29.20
2022-09-01T13:39:48.820Z,28.20
2022-09-01T13:42:17.213Z,26.97
2022-09-01T13:44:44.811Z,27.87
2022-09-01T13:50:10.372Z,28.32
2022-09-01T13:52:41.507Z,27.25
2022-09-01T13:55:13.058Z,27.95
2022-09-01T13:57:39.993Z,26.96
2022-09-01T14:00:11.699Z,27.76
2022-09-01T14:02:49.914Z,27.67
2022-09-01T14:05:20.551Z,26.41
2022-09-01T14:07:48.851Z,25.64
2022-09-01T14:10:17.693Z,24.39
2022-09-01T14:12:45.822Z,25.36
2022-09-01T14:15:18.626Z,24.47
2022-09-01T14:17:56.364Z,24.05
2022-09-01T14:20:27.658Z,26.83
2022-09-01T14:22:55.871Z,29.21
2022-09-01T14:25:23.683Z,29.21
2022-09-01T14:27:50.922Z,27.95
2022-09-01T14:30:31.042Z,26.25
2022-09-01T14:33:00.337Z,25.97
2022-09-01T14:35:28.195Z,24.83
2022-09-01T14:37:55.975Z,24.16
2022-09-01T14:40:24.292Z,24.19
2022-09-01T14:42:53.007Z,27.14
2022-09-01T14:45:24.790Z,29.65
2022-09-01T14:47:55.679Z,31.73
2022-09-01T14:50:23.537Z,33.77
2022-09-01T14:52:55.340Z,35.37
2022-09-01T14:55:28.214Z,35.48
2022-09-01T14:57:55.475Z,35.98
2022-09-01T15:00:27.068Z,36.19
2022-09-01T15:02:55.374Z,37.51
2022-09-01T15:05:23.925Z,37.78
2022-09-01T15:07:52.381Z,38.74
2022-09-01T15:10:25.850Z,38.56
2022-09-01T15:13:00.926Z,39.32
2022-09-01T15:15:29.567Z,39.04
2022-09-01T15:17:56.832Z,39.24
2022-09-01T15:20:43.029Z,40.56
2022-09-01T15:23:10.273Z,40.61
2022-09-01T15:25:37.167Z,40.75
2022-09-01T15:28:04.778Z,41.54
2022-09-01T15:30:32.346Z,41.14
2022-09-01T15:32:59.175Z,41.74
2022-09-01T15:35:29.895Z,42.76
2022-09-01T15:37:58.019Z,40.55
2022-09-01T15:40:26.253Z,40.30
2022-09-01T15:42:54.713Z,39.44
2022-09-01T15:45:24.096Z,39.72
2022-09-01T15:47:51.211Z,38.45
2022-09-01T15:50:23.129Z,38.47
2022-09-01T15:52:57.528Z,38.08
2022-09-01T15:55:44.886Z,39.26
2022-09-01T15:58:15.038Z,39.78
2022-09-01T16:00:43.548Z,39.96
2022-09-01T16:03:11.465Z,40.15
2022-09-01T16:05:40.882Z,40.16
2022-09-01T16:08:09.664Z,40.28
2022-09-01T16:10:39.995Z,39.20
2022-09-01T16:13:07.530Z,40.01
2022-09-01T16:15:35.245Z,41.13
2022-09-01T16:18:32.804Z,41.13
2022-09-01T16:21:14.711Z,41.01
2022-09-01T16:23:46.029Z,41.68
2022-09-01T16:26:12.913Z,42.07
2022-09-01T16:28:42.372Z,42.78
2022-09-01T16:31:16.299Z,43.00
2022-09-01T16:33:56.315Z,43.15
2022-09-01T16:36:29.543Z,43.05
2022-09-01T16:39:03.251Z,42.51
2022-09-01T16:41:51.692Z,41.42
2022-09-01T16:44:54.799Z,42.31
2022-09-01T16:47:35.068Z,42.34
2022-09-01T16:50:39.002Z,42.70
2022-09-01T16:53:25.422Z,44.14
2022-09-01T16:56:31.090Z,42.91
2022-09-01T16:59:17.071Z,42.11
2022-09-01T17:02:35.733Z,43.16
2022-09-01T17:05:37.779Z,41.19
2022-09-01T17:08:24.310Z,41.17
2022-09-01T17:11:39.202Z,42.28
2022-09-01T17:14:09.763Z,42.81
2022-09-01T17:16:42.475Z,43.97
2022-09-01T17:19:17.671Z,43.14
2022-09-01T17:21:53.827Z,42.82
2022-09-01T17:24:44.361Z,43.05
2022-09-01T17:27:22.867Z,44.00
2022-09-01T17:29:53.223Z,44.41
2022-09-01T17:32:43.135Z,45.57
2022-09-01T17:35:48.039Z,46.21
2022-09-01T17:38:39.471Z,46.30
2022-09-01T17:41:19.024Z,47.09
2022-09-01T17:44:17.922Z,49.32
2022-09-01T17:47:01.770Z,49.06
2022-09-01T17:49:47.644Z,49.37
2022-09-01T17:52:47.377Z,49.59
2022-09-01T17:56:13.518Z,50.46
2022-09-01T17:58:55.410Z,50.06
2022-09-01T18:01:37.153Z,49.68
2022-09-01T18:04:19.429Z,50.02
2022-09-01T18:07:03.891Z,50.21
2022-09-01T18:09:35.747Z,50.97
2022-09-01T18:12:11.015Z,51.35
2022-09-01T18:14:55.623Z,51.25
2022-09-01T18:17:33.212Z,51.80
2022-09-01T18:20:12.779Z,52.18
2022-09-01T18:25:36.294Z,52.52
2022-09-01T18:28:03.170Z,52.65
2022-09-01T18:31:08.767Z,53.09
2022-09-01T18:34:24.821Z,53.21
2022-09-01T18:37:18.519Z,53.32
2022-09-01T18:39:54.475Z,53.33
2022-09-01T18:42:49.250Z,53.69
2022-09-01T18:45:27.731Z,54.29
2022-09-01T18:48:00.578Z,53.30
2022-09-01T18:50:53.748Z,53.19
2022-09-01T18:53:29.864Z,54.40
2022-09-01T18:56:38.016Z,53.97
2022-09-01T18:59:25.746Z,53.70
2022-09-01T19:02:20.578Z,53.26
2022-09-01T19:05:12.610Z,55.09
2022-09-01T19:08:24.883Z,54.37
2022-09-01T19:11:08.704Z,53.70
2022-09-01T19:17:03.378Z,55.19
2022-09-01T19:19:52.682Z,54.38
2022-09-01T19:22:38.973Z,55.40
2022-09-01T19:25:31.847Z,56.06
2022-09-01T19:28:15.934Z,55.93
2022-09-01T19:31:25.337Z,56.82
2022-09-01T19:34:11.223Z,56.67
2022-09-01T19:36:47.946Z,56.76
2022-09-01T19:39:33.371Z,56.87
2022-09-01T19:42:07.987Z,56.76
2022-09-01T19:45:26.971Z,57.18
2022-09-01T19:48:35.587Z,57.68
2022-09-01T19:51:45.870Z,57.71
2022-09-01T19:54:54.151Z,57.80
2022-09-01T19:57:34.697Z,58.57
2022-09-01T20:00:21.966Z,58.82
2022-09-01T20:03:07.553Z,59.29
2022-09-01T20:05:45.735Z,58.98
2022-09-01T20:08:23.692Z,59.45
2022-09-01T20:10:58.167Z,59.62
2022-09-01T20:14:00.433Z,59.92
2022-09-01T20:16:41.684Z,59.97
2022-09-01T20:19:58.069Z,59.57
2022-09-01T20:22:40.118Z,60.05
2022-09-01T20:25:17.851Z,59.96
2022-09-01T20:28:10.316Z,60.06
2022-09-01T20:30:46.528Z,60.17
2022-09-01T20:33:19.007Z,60.46
2022-09-01T20:35:59.598Z,60.09
2022-09-01T20:39:06.178Z,60.09
2022-09-01T20:41:59.007Z,60.94
2022-09-01T20:44:45.043Z,60.47
2022-09-01T20:47:12.726Z,61.31
2022-09-01T20:49:40.221Z,59.70
2022-09-01T20:52:43.648Z,59.94
2022-09-01T20:55:17.247Z,59.33
2022-09-01T20:58:02.010Z,59.51
2022-09-01T21:00:30.553Z,59.75
2022-09-01T21:03:32.512Z,61.14
2022-09-01T21:06:48.464Z,61.45
2022-09-01T21:09:44.802Z,61.61
2022-09-01T21:12:46.745Z,61.51
2022-09-01T21:15:27.807Z,62.15
2022-09-01T21:18:07.761Z,61.65
2022-09-01T21:21:32.011Z,62.00
2022-09-01T21:23:58.805Z,61.50
2022-09-01T21:26:25.696Z,62.59
2022-09-01T21:28:56.178Z,62.35
2022-09-01T21:31:24.343Z,63.34
2022-09-01T21:33:51.549Z,63.01
2022-09-01T21:36:18.579Z,63.09
2022-09-01T21:38:45.395Z,63.16
2022-09-01T21:41:13.345Z,63.16
2022-09-01T21:43:44.091Z,63.89
2022-09-01T21:46:13.509Z,63.50
2022-09-01T21:48:40.619Z,63.64
2022-09-01T21:51:07.587Z,64.06
2022-09-01T21:53:34.569Z,64.42
2022-09-01T21:56:01.518Z,64.32
2022-09-01T21:58:28.388Z,64.44
2022-09-01T22:00:56.682Z,64.41
2022-09-01T22:03:24.087Z,64.35
2022-09-01T22:05:51.200Z,64.35
2022-09-01T22:08:18.539Z,64.52
2022-09-01T22:10:49.660Z,64.49
2022-09-01T22:13:18.298Z,64.40
2022-09-01T22:15:52.709Z,64.70
2022-09-01T22:18:21.394Z,64.78
2022-09-01T22:20:48.935Z,65.08
2022-09-01T22:23:16.519Z,64.91
2022-09-01T22:25:46.571Z,65.02
2022-09-01T22:28:14.128Z,65.22
2022-09-01T22:30:46.962Z,65.11
2022-09-01T22:33:14.510Z,65.22
2022-09-01T22:35:47.707Z,65.09
2022-09-01T22:38:15.653Z,64.80
2022-09-01T22:40:49.847Z,64.68
2022-09-01T22:43:18.025Z,64.71
2022-09-01T22:45:50.603Z,63.97
2022-09-01T22:48:20.792Z,63.46
2022-09-01T22:50:49.022Z,63.90
2022-09-01T22:53:18.650Z,63.32
2022-09-01T22:55:49.449Z,62.92
2022-09-01T22:58:17.334Z,63.35
2022-09-01T23:00:48.321Z,62.92
2022-09-01T23:03:15.662Z,62.70
2022-09-01T23:05:44.247Z,63.08
2022-09-01T23:08:20.174Z,63.12
2022-09-01T23:10:47.631Z,63.13
2022-09-01T23:13:15.086Z,63.91
2022-09-01T23:15:41.863Z,63.77
2022-09-01T23:18:08.679Z,63.42
2022-09-01T23:20:35.900Z,64.01
2022-09-01T23:23:03.983Z,63.59
2022-09-01T23:25:30.814Z,63.58
2022-09-01T23:27:57.630Z,64.19
2022-09-01T23:30:24.414Z,64.67
2022-09-01T23:32:51.491Z,64.32
2022-09-01T23:35:18.526Z,64.27
2022-09-01T23:37:45.331Z,64.49
2022-09-01T23:40:12.235Z,64.86
2022-09-01T23:42:39.111Z,64.80
2022-09-01T23:45:06.475Z,64.86
2022-09-01T23:47:33.390Z,65.14
2022-09-01T23:50:00.288Z,65.08
2022-09-01T23:52:27.115Z,65.25
2022-09-01T23:54:54.519Z,65.22
2022-09-01T23:57:21.399Z,65.26
2022-09-01T23:59:48.319Z,65.83
